createdAt,value
2017-02-13T00:01:29.340Z,0
2017-02-13T00:03:31.684Z,0
2017-02-13T00:05:29.042Z,0
2017-02-13T00:07:36.454Z,0
2017-02-13T00:09:39.029Z,0
2017-02-13T00:11:36.378Z,0
2017-02-13T00:13:28.830Z,0
2017-02-13T00:15:21.345Z,0
2017-02-13T00:17:18.937Z,0
2017-02-13T00:19:26.310Z,0
2017-02-13T00:21:28.591Z,0
2017-02-13T00:23:16.171Z,0
2017-02-13T00:25:13.625Z,0
2017-02-13T00:27:15.993Z,0
2017-02-13T00:29:08.297Z,0
2017-02-13T00:31:20.640Z,0
2017-02-13T00:33:23.055Z,0
2017-02-13T00:35:25.476Z,0
2017-02-13T00:37:22.793Z,0
2017-02-13T00:39:15.203Z,0
2017-02-13T00:41:22.703Z,0
2017-02-13T00:43:15.405Z,0
2017-02-13T00:45:27.896Z,0
2017-02-13T00:47:25.187Z,0
2017-02-13T00:49:27.569Z,0
2017-02-13T00:51:20.038Z,0
2017-02-13T00:53:27.386Z,0
2017-02-13T00:55:24.872Z,0
2017-02-13T00:57:32.271Z,0
2017-02-13T00:59:29.845Z,0
2017-02-13T01:01:17.263Z,0
2017-02-13T01:03:09.552Z,0
2017-02-13T01:05:12.056Z,0
2017-02-13T01:07:04.466Z,0
2017-02-13T01:08:51.932Z,0
2017-02-13T01:10:39.401Z,0
2017-02-13T01:12:31.764Z,0
2017-02-13T01:14:33.980Z,0
2017-02-13T01:16:21.330Z,0
2017-02-13T01:18:24.100Z,0
2017-02-13T01:20:16.689Z,0
2017-02-13T01:22:18.876Z,0
2017-02-13T01:24:26.309Z,0
2017-02-13T01:26:28.890Z,0
2017-02-13T01:28:21.314Z,0
2017-02-13T01:30:33.712Z,0
2017-02-13T01:32:36.099Z,0
2017-02-13T01:34:38.388Z,0
2017-02-13T01:36:40.730Z,0
2017-02-13T01:38:38.179Z,0
2017-02-13T01:40:25.555Z,0
2017-02-13T01:42:28.016Z,0
2017-02-13T01:44:10.446Z,0
2017-02-13T01:46:13.013Z,0
2017-02-13T01:48:15.195Z,0
2017-02-13T01:50:02.622Z,0
2017-02-13T01:51:55.845Z,0
2017-02-13T01:53:58.161Z,0
2017-02-13T01:55:40.484Z,0
2017-02-13T01:57:42.767Z,0
2017-02-13T01:59:45.171Z,0
2017-02-13T02:01:47.718Z,0
2017-02-13T02:03:45.201Z,0
2017-02-13T02:05:47.608Z,0
2017-02-13T02:07:54.870Z,0
2017-02-13T02:09:47.299Z,0
2017-02-13T02:11:49.564Z,0
2017-02-13T02:13:57.065Z,0
2017-02-13T02:15:54.341Z,0
2017-02-13T02:18:01.652Z,0
2017-02-13T02:20:09.116Z,0
2017-02-13T02:21:56.447Z,0
2017-02-13T02:23:44.289Z,0
2017-02-13T02:25:42.298Z,0
2017-02-13T02:27:54.831Z,0
2017-02-13T02:29:52.395Z,0
2017-02-13T02:31:59.648Z,0
2017-02-13T02:34:02.043Z,0
2017-02-13T02:35:49.390Z,0
2017-02-13T02:37:51.629Z,0
2017-02-13T02:39:53.801Z,0
2017-02-13T02:42:01.144Z,0
2017-02-13T02:44:08.432Z,0
2017-02-13T02:46:15.686Z,0
2017-02-13T02:48:08.081Z,0
2017-02-13T02:50:05.293Z,0
2017-02-13T02:51:57.587Z,0
2017-02-13T02:54:05.017Z,0
2017-02-13T02:56:07.413Z,0
2017-02-13T02:58:15.035Z,0
2017-02-13T03:00:27.830Z,0
2017-02-13T03:02:25.156Z,0
2017-02-13T03:04:17.497Z,0
2017-02-13T03:06:24.788Z,0
2017-02-13T03:08:12.263Z,0
2017-02-13T03:10:04.714Z,0
2017-02-13T03:12:01.940Z,0
2017-02-13T03:14:09.223Z,0
2017-02-13T03:16:11.523Z,0
2017-02-13T03:17:59.000Z,0
2017-02-13T03:19:56.345Z,0
2017-02-13T03:21:48.771Z,0
2017-02-13T03:23:46.027Z,0
2017-02-13T03:25:53.500Z,0
2017-02-13T03:27:40.783Z,0
2017-02-13T03:29:48.041Z,0
2017-02-13T03:31:40.432Z,0
2017-02-13T03:33:33.357Z,0
2017-02-13T03:35:41.307Z,0
2017-02-13T03:37:38.728Z,0
2017-02-13T03:39:36.010Z,0
2017-02-13T03:41:23.486Z,0
2017-02-13T03:43:20.807Z,0
2017-02-13T03:45:23.214Z,0
2017-02-13T03:47:20.548Z,0
2017-02-13T03:49:22.863Z,0
2017-02-13T03:51:20.206Z,0
2017-02-13T03:53:17.567Z,0
2017-02-13T03:55:09.983Z,0
2017-02-13T03:57:13.166Z,0
2017-02-13T03:59:15.663Z,0
2017-02-13T04:01:03.216Z,0
2017-02-13T04:03:00.464Z,0
2017-02-13T04:05:02.703Z,0
2017-02-13T04:07:00.050Z,0
2017-02-13T04:09:07.880Z,0
2017-02-13T04:11:20.397Z,0
2017-02-13T04:13:12.645Z,0
2017-02-13T04:15:09.902Z,0
2017-02-13T04:17:12.097Z,0
2017-02-13T04:19:14.305Z,0
2017-02-13T04:21:11.627Z,0
2017-02-13T04:23:14.129Z,0
2017-02-13T04:25:16.520Z,0
2017-02-13T04:27:03.936Z,0
2017-02-13T04:29:11.352Z,0
2017-02-13T04:31:08.748Z,0
2017-02-13T04:33:01.026Z,0
2017-02-13T04:34:58.478Z,0
2017-02-13T04:36:55.809Z,0
2017-02-13T04:38:58.266Z,0
2017-02-13T04:40:50.609Z,0
2017-02-13T04:42:58.233Z,0
2017-02-13T04:44:56.022Z,0
2017-02-13T04:46:53.508Z,0
2017-02-13T04:48:50.793Z,0
2017-02-13T04:50:58.055Z,0
2017-02-13T04:53:00.614Z,0
2017-02-13T04:54:57.881Z,0
2017-02-13T04:57:05.071Z,0
2017-02-13T04:59:07.330Z,0
2017-02-13T05:01:09.767Z,0
2017-02-13T05:03:07.050Z,0
2017-02-13T05:05:09.424Z,0
2017-02-13T05:07:01.904Z,0
2017-02-13T05:09:04.214Z,0
2017-02-13T05:11:11.671Z,0
2017-02-13T05:13:04.007Z,0
2017-02-13T05:15:01.446Z,0
2017-02-13T05:17:14.153Z,0
2017-02-13T05:19:11.686Z,0
2017-02-13T05:21:13.917Z,0
2017-02-13T05:23:16.212Z,0
2017-02-13T05:25:13.443Z,0
2017-02-13T05:27:15.880Z,0
2017-02-13T05:29:28.066Z,0
2017-02-13T05:31:20.434Z,0
2017-02-13T05:33:17.823Z,0
2017-02-13T05:35:15.259Z,0
2017-02-13T05:37:17.511Z,0
2017-02-13T05:39:19.736Z,0
2017-02-13T05:41:12.181Z,0
2017-02-13T05:43:09.655Z,0
2017-02-13T05:45:12.139Z,0
2017-02-13T05:47:19.467Z,0
2017-02-13T05:49:01.866Z,0
2017-02-13T05:51:04.145Z,0
2017-02-13T05:53:12.807Z,0
2017-02-13T05:55:10.195Z,0
2017-02-13T05:57:22.469Z,0
2017-02-13T05:59:24.882Z,0
2017-02-13T06:01:07.284Z,4
2017-02-13T06:03:09.717Z,0
2017-02-13T06:05:07.018Z,4
2017-02-13T06:07:04.468Z,4
2017-02-13T06:08:51.931Z,4
2017-02-13T06:11:04.315Z,4
2017-02-13T06:13:01.703Z,8
2017-02-13T06:14:49.090Z,12
2017-02-13T06:16:56.404Z,16
2017-02-13T06:18:58.811Z,20
2017-02-13T06:20:56.299Z,28
2017-02-13T06:23:03.559Z,32
2017-02-13T06:25:00.879Z,32
2017-02-13T06:27:08.176Z,44
2017-02-13T06:29:10.886Z,52
2017-02-13T06:31:14.436Z,68
2017-02-13T06:33:11.711Z,84
2017-02-13T06:35:14.157Z,88
2017-02-13T06:37:07.399Z,100
2017-02-13T06:39:14.794Z,112
2017-02-13T06:41:22.140Z,124
2017-02-13T06:43:19.513Z,136
2017-02-13T06:45:21.829Z,148
2017-02-13T06:47:29.277Z,172
2017-02-13T06:49:41.597Z,192
2017-02-13T06:51:48.882Z,212
2017-02-13T06:53:56.143Z,224
2017-02-13T06:56:03.446Z,244
2017-02-13T06:58:11.002Z,248
2017-02-13T07:00:18.533Z,288
2017-02-13T07:02:25.890Z,292
2017-02-13T07:04:23.460Z,328
2017-02-13T07:06:25.768Z,340
2017-02-13T07:08:24.937Z,352
2017-02-13T07:10:22.317Z,372
2017-02-13T07:12:24.634Z,384
2017-02-13T07:14:22.247Z,432
2017-02-13T07:16:19.777Z,492
2017-02-13T07:18:07.351Z,500
2017-02-13T07:20:04.687Z,496
2017-02-13T07:21:52.057Z,496
2017-02-13T07:23:59.652Z,544
2017-02-13T07:26:07.471Z,568
2017-02-13T07:28:04.969Z,636
2017-02-13T07:30:07.781Z,680
2017-02-13T07:32:05.540Z,720
2017-02-13T07:34:08.606Z,724
2017-02-13T07:36:11.132Z,748
2017-02-13T07:38:08.689Z,812
2017-02-13T07:40:16.476Z,864
2017-02-13T07:42:14.012Z,876
2017-02-13T07:44:11.607Z,876
2017-02-13T07:46:19.470Z,936
2017-02-13T07:48:21.770Z,1108
2017-02-13T07:50:29.220Z,1256
2017-02-13T07:52:26.490Z,1168
2017-02-13T07:54:18.770Z,1188
2017-02-13T07:56:11.184Z,1304
2017-02-13T07:58:08.534Z,1316
2017-02-13T07:59:55.808Z,1448
2017-02-13T08:01:46.655Z,1408
2017-02-13T08:03:48.887Z,1400
2017-02-13T08:05:51.120Z,1524
2017-02-13T08:07:53.432Z,1516
2017-02-13T08:10:00.813Z,1596
2017-02-13T08:12:08.043Z,1636
2017-02-13T08:14:00.466Z,1740
2017-02-13T08:15:48.114Z,1792
2017-02-13T08:17:35.464Z,1964
2017-02-13T08:19:32.710Z,1720
2017-02-13T08:21:39.881Z,1916
2017-02-13T08:23:42.162Z,1928
2017-02-13T08:25:34.442Z,1896
2017-02-13T08:27:27.805Z,1776
2017-02-13T08:29:15.310Z,1852
2017-02-13T08:31:12.598Z,2020
2017-02-13T08:33:04.932Z,2008
2017-02-13T08:35:02.233Z,2080
2017-02-13T08:37:04.517Z,2124
2017-02-13T08:38:56.894Z,1956
2017-02-13T08:40:59.277Z,1960
2017-02-13T08:43:07.513Z,2316
2017-02-13T08:45:14.907Z,2352
2017-02-13T08:47:17.135Z,2248
2017-02-13T08:49:14.425Z,2244
2017-02-13T08:51:16.810Z,2140
2017-02-13T08:53:24.035Z,2444
2017-02-13T08:55:21.278Z,2432
2017-02-13T08:57:28.632Z,2460
2017-02-13T08:59:25.914Z,2564
2017-02-13T09:01:33.253Z,2584
2017-02-13T09:03:15.720Z,2604
2017-02-13T09:05:02.981Z,2824
2017-02-13T09:07:00.240Z,2872
2017-02-13T09:08:52.566Z,2812
2017-02-13T09:10:44.806Z,2884
2017-02-13T09:12:37.155Z,2764
2017-02-13T09:14:29.578Z,2944
2017-02-13T09:16:31.777Z,2964
2017-02-13T09:18:39.152Z,2912
2017-02-13T09:20:36.420Z,3024
2017-02-13T09:22:28.622Z,3048
2017-02-13T09:24:26.198Z,2904
2017-02-13T09:26:29.873Z,3156
2017-02-13T09:28:32.476Z,3212
2017-02-13T09:30:19.869Z,3228
2017-02-13T09:32:27.393Z,3224
2017-02-13T09:34:24.724Z,3368
2017-02-13T09:36:27.297Z,3280
2017-02-13T09:38:34.752Z,3276
2017-02-13T09:40:31.987Z,3408
2017-02-13T09:42:44.566Z,3360
2017-02-13T09:45:06.232Z,3516
2017-02-13T09:47:11.582Z,3812
2017-02-13T09:49:26.982Z,3672
2017-02-13T09:51:40.853Z,3676
2017-02-13T09:53:43.288Z,3748
2017-02-13T09:55:45.618Z,3808
2017-02-13T09:57:38.158Z,3960
2017-02-13T09:59:45.555Z,3992
2017-02-13T10:01:48.196Z,3776
2017-02-13T10:03:50.733Z,3908
2017-02-13T10:05:48.023Z,3996
2017-02-13T10:07:50.398Z,4224
2017-02-13T10:10:02.712Z,4460
2017-02-13T10:12:05.147Z,4312
2017-02-13T10:14:12.478Z,4580
2017-02-13T10:16:14.798Z,4636
2017-02-13T10:18:17.218Z,4508
2017-02-13T10:20:19.473Z,4416
2017-02-13T10:22:11.867Z,4428
2017-02-13T10:23:59.438Z,4408
2017-02-13T10:26:01.724Z,4584
2017-02-13T10:27:59.116Z,4620
2017-02-13T10:29:57.345Z,4588
2017-02-13T10:31:54.595Z,4576
2017-02-13T10:33:46.839Z,4652
2017-02-13T10:35:54.261Z,5088
2017-02-13T10:37:41.564Z,5140
2017-02-13T10:39:33.822Z,5044
2017-02-13T10:41:26.034Z,5076
2017-02-13T10:43:13.379Z,5464
2017-02-13T10:45:05.723Z,5600
2017-02-13T10:47:08.004Z,5728
2017-02-13T10:49:15.480Z,5576
2017-02-13T10:51:12.928Z,5984
2017-02-13T10:53:15.153Z,6300
2017-02-13T10:55:12.618Z,5776
2017-02-13T10:57:10.110Z,5476
2017-02-13T10:59:07.339Z,5104
2017-02-13T11:01:09.566Z,5256
2017-02-13T11:03:11.871Z,5040
2017-02-13T11:05:19.056Z,5240
2017-02-13T11:07:26.392Z,4952
2017-02-13T11:09:19.084Z,4984
2017-02-13T11:11:21.460Z,5124
2017-02-13T11:13:28.760Z,5248
2017-02-13T11:15:35.971Z,5264
2017-02-13T11:17:28.288Z,5136
2017-02-13T11:19:25.743Z,5448
2017-02-13T11:21:18.227Z,5880
2017-02-13T11:23:10.463Z,5924
2017-02-13T11:25:17.784Z,5928
2017-02-13T11:27:15.154Z,5284
2017-02-13T11:29:22.355Z,5252
2017-02-13T11:31:24.683Z,4640
2017-02-13T11:33:22.120Z,4516
2017-02-13T11:35:24.558Z,4448
2017-02-13T11:37:31.990Z,4392
2017-02-13T11:39:29.308Z,4400
2017-02-13T11:41:26.618Z,4428
2017-02-13T11:43:29.383Z,4808
2017-02-13T11:45:31.715Z,5252
2017-02-13T11:47:33.937Z,5540
2017-02-13T11:49:36.146Z,5528
2017-02-13T11:51:33.423Z,5120
2017-02-13T11:53:40.604Z,4796
2017-02-13T11:55:42.854Z,4528
2017-02-13T11:57:40.249Z,4940
2017-02-13T11:59:32.463Z,4972
2017-02-13T12:01:24.790Z,4664
2017-02-13T12:03:27.383Z,4704
2017-02-13T12:05:19.946Z,4656
2017-02-13T12:07:22.414Z,4796
2017-02-13T12:09:14.825Z,5168
2017-02-13T12:11:22.126Z,5484
2017-02-13T12:13:14.456Z,5468
2017-02-13T12:15:06.803Z,5528
2017-02-13T12:17:09.410Z,5520
2017-02-13T12:18:56.995Z,5812
2017-02-13T12:20:54.190Z,6472
2017-02-13T12:22:51.457Z,6608
2017-02-13T12:24:58.785Z,6824
2017-02-13T12:26:56.254Z,6180
2017-02-13T12:28:53.519Z,6124
2017-02-13T12:30:41.128Z,5700
2017-02-13T12:32:43.335Z,5496
2017-02-13T12:34:45.522Z,5388
2017-02-13T12:36:32.998Z,5476
2017-02-13T12:38:25.536Z,5308
2017-02-13T12:40:22.805Z,5556
2017-02-13T12:42:15.315Z,5248
2017-02-13T12:45:31.414Z,5768
2017-02-13T12:45:45.353Z,5840
2017-02-13T12:47:32.681Z,5592
2017-02-13T12:49:24.969Z,5788
2017-02-13T12:51:32.371Z,5856
2017-02-13T12:53:25.233Z,5656
2017-02-13T12:55:17.663Z,5644
2017-02-13T12:57:29.906Z,8096
2017-02-13T12:59:22.244Z,8592
2017-02-13T13:01:24.540Z,7140
2017-02-13T13:03:21.889Z,10000
2017-02-13T13:05:14.300Z,10796
2017-02-13T13:07:16.620Z,9028
2017-02-13T13:09:09.171Z,8384
2017-02-13T13:11:01.643Z,8044
2017-02-13T13:13:08.860Z,8008
2017-02-13T13:15:12.393Z,8212
2017-02-13T13:17:15.343Z,9120
2017-02-13T13:19:23.201Z,8284
2017-02-13T13:21:21.580Z,8648
2017-02-13T13:23:14.022Z,9388
2017-02-13T13:25:16.499Z,8500
2017-02-13T13:27:19.750Z,10300
2017-02-13T13:29:22.051Z,12044
2017-02-13T13:31:19.420Z,10348
2017-02-13T13:33:21.978Z,10028
2017-02-13T13:35:24.383Z,9536
2017-02-13T13:37:21.700Z,8552
2017-02-13T13:39:19.295Z,9648
2017-02-13T13:41:16.990Z,13116
2017-02-13T13:43:19.485Z,9768
2017-02-13T13:45:22.435Z,11532
2017-02-13T13:47:14.930Z,8528
2017-02-13T13:49:02.391Z,10600
2017-02-13T13:50:59.854Z,12448
2017-02-13T13:53:12.305Z,12460
2017-02-13T13:55:04.709Z,11936
2017-02-13T13:57:01.989Z,22656
2017-02-13T13:58:54.435Z,23488
2017-02-13T14:00:46.726Z,17632
2017-02-13T14:02:44.237Z,20864
2017-02-13T14:04:46.743Z,15840
2017-02-13T14:06:39.072Z,22560
2017-02-13T14:08:46.299Z,10864
2017-02-13T14:10:48.829Z,9724
2017-02-13T14:12:46.107Z,10012
2017-02-13T14:14:33.443Z,9472
2017-02-13T14:16:35.753Z,9080
2017-02-13T14:18:33.172Z,9560
2017-02-13T14:20:35.428Z,16576
2017-02-13T14:22:37.704Z,16832
2017-02-13T14:24:25.020Z,16384
2017-02-13T14:26:27.285Z,15232
2017-02-13T14:28:29.898Z,15008
2017-02-13T14:30:37.177Z,15424
2017-02-13T14:32:29.451Z,14592
2017-02-13T14:34:21.772Z,14912
2017-02-13T14:36:14.323Z,14624
2017-02-13T14:38:16.634Z,13376
2017-02-13T14:40:14.013Z,13120
2017-02-13T14:42:11.509Z,13440
2017-02-13T14:44:13.847Z,13024
2017-02-13T14:46:21.135Z,12672
2017-02-13T14:48:18.594Z,11712
2017-02-13T14:50:11.065Z,11208
2017-02-13T14:51:58.378Z,11052
2017-02-13T14:54:05.657Z,10536
2017-02-13T14:56:08.164Z,9960
2017-02-13T14:58:05.395Z,10188
2017-02-13T15:00:02.716Z,9584
2017-02-13T15:02:10.053Z,9060
2017-02-13T15:04:17.714Z,9052
2017-02-13T15:06:09.964Z,8652
2017-02-13T15:07:57.278Z,8216
2017-02-13T15:09:59.759Z,7692
2017-02-13T15:11:52.051Z,7448
2017-02-13T15:13:39.441Z,7188
2017-02-13T15:15:32.287Z,6984
2017-02-13T15:17:24.805Z,6644
2017-02-13T15:19:27.177Z,6392
2017-02-13T15:21:19.757Z,6444
2017-02-13T15:23:17.187Z,6360
2017-02-13T15:25:09.592Z,6056
2017-02-13T15:27:06.899Z,5756
2017-02-13T15:29:04.281Z,5420
2017-02-13T15:31:01.558Z,5096
2017-02-13T15:32:59.125Z,4932
2017-02-13T15:34:51.401Z,4704
2017-02-13T15:36:54.686Z,4404
2017-02-13T15:38:52.017Z,4172
2017-02-13T15:40:39.288Z,4040
2017-02-13T15:42:41.667Z,3764
2017-02-13T15:44:29.068Z,3628
2017-02-13T15:46:36.481Z,3320
2017-02-13T15:48:34.008Z,3060
2017-02-13T15:50:26.790Z,2856
2017-02-13T15:52:34.521Z,2584
2017-02-13T15:54:31.796Z,2372
2017-02-13T15:56:39.090Z,2172
2017-02-13T15:58:26.441Z,2008
2017-02-13T16:00:28.699Z,1812
2017-02-13T16:02:11.103Z,1680
2017-02-13T16:04:08.431Z,1544
2017-02-13T16:06:10.772Z,1392
2017-02-13T16:08:13.443Z,1252
2017-02-13T16:10:15.885Z,1116
2017-02-13T16:12:18.391Z,992
2017-02-13T16:14:25.875Z,872
2017-02-13T16:16:18.264Z,776
2017-02-13T16:18:15.684Z,688
2017-02-13T16:20:03.102Z,612
2017-02-13T16:21:55.413Z,536
2017-02-13T16:23:57.835Z,468
2017-02-13T16:25:50.296Z,408
2017-02-13T16:27:42.639Z,352
2017-02-13T16:29:44.938Z,300
2017-02-13T16:31:42.296Z,252
2017-02-13T16:33:39.535Z,216
2017-02-13T16:35:31.812Z,176
2017-02-13T16:37:24.101Z,148
2017-02-13T16:39:26.429Z,116
2017-02-13T16:41:18.902Z,92
2017-02-13T16:43:26.079Z,68
2017-02-13T16:45:18.510Z,52
2017-02-13T16:47:15.816Z,36
2017-02-13T16:49:13.370Z,28
2017-02-13T16:51:05.879Z,20
2017-02-13T16:53:18.039Z,12
2017-02-13T16:55:20.409Z,8
2017-02-13T16:57:27.719Z,4
2017-02-13T16:59:30.005Z,4
2017-02-13T17:01:27.555Z,0
2017-02-13T17:03:25.108Z,4
2017-02-13T17:05:12.672Z,0
2017-02-13T17:07:10.140Z,0
2017-02-13T17:09:02.640Z,0
2017-02-13T17:11:05.994Z,0
2017-02-13T17:12:58.485Z,0
2017-02-13T17:14:55.880Z,0
2017-02-13T17:16:53.388Z,0
2017-02-13T17:18:50.934Z,0
2017-02-13T17:20:48.415Z,0
2017-02-13T17:22:45.778Z,0
2017-02-13T17:24:48.208Z,0
2017-02-13T17:26:50.455Z,0
2017-02-13T17:28:57.821Z,0
2017-02-13T17:31:01.013Z,0
2017-02-13T17:33:08.381Z,0
2017-02-13T17:35:00.823Z,0
2017-02-13T17:37:03.021Z,0
2017-02-13T17:38:50.562Z,0
2017-02-13T17:40:37.938Z,0
2017-02-13T17:42:35.404Z,0
2017-02-13T17:44:32.710Z,0
2017-02-13T17:46:35.197Z,0
2017-02-13T17:48:32.531Z,0
2017-02-13T17:50:25.025Z,0
2017-02-13T17:52:37.372Z,0
2017-02-13T17:54:44.866Z,0
2017-02-13T17:56:42.272Z,0
2017-02-13T17:58:49.791Z,0
2017-02-13T18:00:47.214Z,0
2017-02-13T18:02:49.735Z,0
2017-02-13T18:04:57.218Z,0
2017-02-13T18:06:44.697Z,0
2017-02-13T18:08:47.041Z,0
2017-02-13T18:10:44.341Z,0
2017-02-13T18:12:41.617Z,0
2017-02-13T18:14:44.230Z,0
2017-02-13T18:16:56.513Z,0
2017-02-13T18:18:58.928Z,0
2017-02-13T18:21:06.383Z,0
2017-02-13T18:23:08.924Z,0
2017-02-13T18:25:06.411Z,0
2017-02-13T18:27:03.821Z,0
2017-02-13T18:29:06.387Z,0
2017-02-13T18:31:08.984Z,0
2017-02-13T18:33:06.925Z,0
2017-02-13T18:35:04.351Z,0
2017-02-13T18:37:11.607Z,0
2017-02-13T18:39:04.102Z,0
2017-02-13T18:40:46.449Z,0
2017-02-13T18:42:43.886Z,0
2017-02-13T18:44:46.229Z,0
2017-02-13T18:46:48.543Z,0
2017-02-13T18:48:55.818Z,0
2017-02-13T18:50:53.143Z,0
2017-02-13T18:52:55.621Z,0
2017-02-13T18:55:03.278Z,0
2017-02-13T18:57:10.959Z,0
2017-02-13T18:59:08.418Z,0
2017-02-13T19:01:15.953Z,0
2017-02-13T19:03:18.287Z,0
2017-02-13T19:05:00.933Z,0
2017-02-13T19:07:03.403Z,0
2017-02-13T19:09:05.780Z,0
2017-02-13T19:10:58.210Z,0
2017-02-13T19:12:55.703Z,0
2017-02-13T19:14:57.970Z,0
2017-02-13T19:16:45.343Z,0
2017-02-13T19:18:37.613Z,0
2017-02-13T19:20:29.993Z,0
2017-02-13T19:22:32.343Z,0
2017-02-13T19:24:29.857Z,0
2017-02-13T19:26:37.278Z,0
2017-02-13T19:28:39.642Z,0
2017-02-13T19:30:42.208Z,0
2017-02-13T19:32:39.606Z,0
2017-02-13T19:34:32.378Z,0
2017-02-13T19:36:44.844Z,0
2017-02-13T19:38:47.253Z,0
2017-02-13T19:40:49.965Z,0
2017-02-13T19:42:52.364Z,0
2017-02-13T19:44:49.807Z,0
2017-02-13T19:46:42.259Z,0
2017-02-13T19:48:44.973Z,0
2017-02-13T19:50:27.717Z,0
2017-02-13T19:52:40.358Z,0
2017-02-13T19:54:38.046Z,0
2017-02-13T19:56:46.010Z,0
2017-02-13T19:58:48.792Z,0
2017-02-13T20:00:51.522Z,0
2017-02-13T20:02:49.259Z,0
2017-02-13T20:04:57.148Z,0
2017-02-13T20:06:59.570Z,0
2017-02-13T20:09:02.349Z,0
2017-02-13T20:11:09.921Z,0
2017-02-13T20:13:17.323Z,0
2017-02-13T20:15:19.880Z,0
2017-02-13T20:17:22.386Z,0
2017-02-13T20:19:24.892Z,0
2017-02-13T20:21:27.362Z,0
2017-02-13T20:23:29.956Z,0
2017-02-13T20:25:27.705Z,0
2017-02-13T20:27:25.160Z,0
2017-02-13T20:29:22.785Z,0
2017-02-13T20:31:25.435Z,0
2017-02-13T20:33:22.797Z,0
2017-02-13T20:35:30.581Z,0
2017-02-13T20:37:28.153Z,0
2017-02-13T20:39:30.712Z,0
2017-02-13T20:41:35.508Z,0
2017-02-13T20:43:33.233Z,0
2017-02-13T20:45:36.124Z,0
2017-02-13T20:47:38.796Z,0
2017-02-13T20:49:41.398Z,0
2017-02-13T20:51:38.657Z,0
2017-02-13T20:53:40.992Z,0
2017-02-13T20:55:38.416Z,0
2017-02-13T20:57:40.862Z,0
2017-02-13T20:59:48.212Z,0
2017-02-13T21:01:40.594Z,0
2017-02-13T21:03:33.022Z,0
2017-02-13T21:05:31.789Z,0
2017-02-13T21:07:34.002Z,0
2017-02-13T21:09:46.371Z,0
2017-02-13T21:11:48.865Z,0
2017-02-13T21:13:31.171Z,0
2017-02-13T21:15:33.372Z,0
2017-02-13T21:17:25.697Z,0
2017-02-13T21:19:13.405Z,0
2017-02-13T21:21:26.128Z,0
2017-02-13T21:23:28.416Z,0
2017-02-13T21:25:35.838Z,0
2017-02-13T21:27:33.052Z,0
2017-02-13T21:29:30.424Z,0
2017-02-13T21:31:27.705Z,0
2017-02-13T21:33:40.027Z,0
2017-02-13T21:35:47.530Z,0
2017-02-13T21:37:59.851Z,0
2017-02-13T21:40:07.167Z,0
2017-02-13T21:41:59.721Z,0
2017-02-13T21:43:52.152Z,0
2017-02-13T21:45:54.498Z,0
2017-02-13T21:47:41.994Z,0
2017-02-13T21:49:44.360Z,0
2017-02-13T21:51:46.717Z,0
2017-02-13T21:53:44.233Z,0
2017-02-13T21:55:31.746Z,0
2017-02-13T21:57:29.072Z,0
2017-02-13T21:59:11.470Z,0
2017-02-13T22:01:03.855Z,0
2017-02-13T22:03:06.279Z,0
2017-02-13T22:05:08.651Z,0
2017-02-13T22:07:16.172Z,0
2017-02-13T22:09:18.487Z,0
2017-02-13T22:11:16.010Z,0
2017-02-13T22:13:03.423Z,0
2017-02-13T22:15:05.686Z,0
2017-02-13T22:17:07.995Z,0
2017-02-13T22:19:15.434Z,0
2017-02-13T22:21:09.404Z,0
2017-02-13T22:23:48.494Z,0
2017-02-13T22:26:40.259Z,0
2017-02-13T22:29:24.713Z,0
2017-02-13T22:32:15.274Z,0
2017-02-13T22:35:02.128Z,0
2017-02-13T22:37:32.385Z,0
2017-02-13T22:39:24.880Z,0
2017-02-13T22:41:17.223Z,0
2017-02-13T22:43:15.335Z,0
2017-02-13T22:45:22.603Z,0
2017-02-13T22:47:24.840Z,0
2017-02-13T22:49:17.117Z,0
2017-02-13T22:51:24.412Z,0
2017-02-13T22:53:26.651Z,0
2017-02-13T22:55:33.964Z,0
2017-02-13T22:57:11.318Z,0
2017-02-13T22:58:53.660Z,0
2017-02-13T23:00:56.385Z,0
2017-02-13T23:02:58.819Z,0
2017-02-13T23:04:51.398Z,0
2017-02-13T23:06:48.789Z,0
2017-02-13T23:08:46.003Z,0
2017-02-13T23:10:43.469Z,0
2017-02-13T23:12:40.873Z,0
2017-02-13T23:14:48.264Z,0
2017-02-13T23:16:35.663Z,0
2017-02-13T23:18:38.075Z,0
2017-02-13T23:20:30.411Z,0
2017-02-13T23:22:22.777Z,0
2017-02-13T23:24:15.190Z,0
2017-02-13T23:25:57.709Z,0
2017-02-13T23:27:50.158Z,0
2017-02-13T23:29:37.585Z,0
2017-02-13T23:31:49.957Z,0
2017-02-13T23:33:52.268Z,0
2017-02-13T23:35:59.577Z,0
2017-02-13T23:38:02.177Z,0
2017-02-13T23:40:09.525Z,0
2017-02-13T23:42:01.868Z,0
2017-02-13T23:44:04.156Z,0
2017-02-13T23:45:56.411Z,0
2017-02-13T23:47:48.721Z,0
2017-02-13T23:49:46.074Z,0
2017-02-13T23:51:43.467Z,0
2017-02-13T23:53:35.737Z,0
2017-02-13T23:55:36.182Z,0
2017-02-13T23:57:47.307Z,0
2017-02-13T23:59:44.634Z,0
